createdAt,value
2019-05-03T00:01:52.732Z,8.35
2019-05-03T00:04:22.388Z,7.58
2019-05-03T00:06:52.111Z,7.12
2019-05-03T00:09:22.516Z,6.70
2019-05-03T00:11:52.883Z,5.95
2019-05-03T00:14:21.794Z,6.17
2019-05-03T00:16:52.211Z,6.53
2019-05-03T00:19:21.959Z,6.47
2019-05-03T00:21:52.473Z,6.15
2019-05-03T00:24:22.475Z,6.05
2019-05-03T00:26:51.652Z,5.00
2019-05-03T00:29:21.848Z,4.47
2019-05-03T00:31:51.673Z,4.85
2019-05-03T00:34:41.833Z,4.00
2019-05-03T00:37:12.617Z,4.37
2019-05-03T00:39:47.959Z,4.37
2019-05-03T00:42:16.253Z,4.60
2019-05-03T00:44:44.531Z,4.72
2019-05-03T00:47:12.830Z,4.85
2019-05-03T00:49:42.604Z,4.85
2019-05-03T00:52:11.677Z,4.78
2019-05-03T00:54:42.227Z,4.47
2019-05-03T00:57:11.985Z,4.97
2019-05-03T00:59:41.943Z,4.30
2019-05-03T01:02:11.867Z,3.85
2019-05-03T01:04:40.291Z,4.30
2019-05-03T01:07:08.590Z,3.85
2019-05-03T01:09:36.891Z,3.70
2019-05-03T01:12:05.186Z,3.22
2019-05-03T01:14:34.739Z,3.80
2019-05-03T01:17:03.035Z,3.67
2019-05-03T01:19:32.979Z,3.80
2019-05-03T01:22:01.962Z,3.62
2019-05-03T01:24:32.105Z,3.42
2019-05-03T01:27:01.989Z,3.60
2019-05-03T01:29:32.225Z,3.52
2019-05-03T01:32:02.328Z,3.75
2019-05-03T01:34:32.439Z,3.42
2019-05-03T01:37:02.424Z,3.83
2019-05-03T01:39:31.610Z,3.17
2019-05-03T01:41:59.993Z,3.40
2019-05-03T01:44:28.276Z,3.20
2019-05-03T01:46:58.221Z,2.87
2019-05-03T01:49:28.139Z,3.65
2019-05-03T01:52:10.006Z,3.50
2019-05-03T01:54:38.275Z,4.05
2019-05-03T01:57:06.647Z,3.60
2019-05-03T01:59:34.925Z,3.45
2019-05-03T02:02:07.605Z,3.58
2019-05-03T02:04:37.625Z,3.92
2019-05-03T02:07:05.902Z,4.00
2019-05-03T02:09:34.201Z,3.67
2019-05-03T02:12:02.471Z,3.60
2019-05-03T02:14:31.725Z,4.47
2019-05-03T02:17:01.804Z,3.35
2019-05-03T02:19:30.205Z,3.70
2019-05-03T02:21:58.486Z,4.03
2019-05-03T02:24:26.779Z,3.60
2019-05-03T02:26:55.059Z,3.30
2019-05-03T02:29:23.353Z,3.42
2019-05-03T02:31:53.477Z,3.35
2019-05-03T02:34:23.895Z,3.42
2019-05-03T02:36:53.758Z,3.22
2019-05-03T02:39:22.857Z,3.27
2019-05-03T02:41:58.050Z,3.25
2019-05-03T02:44:22.418Z,3.27
2019-05-03T02:46:52.335Z,3.08
2019-05-03T02:49:25.743Z,3.67
2019-05-03T02:51:55.448Z,3.77
2019-05-03T02:54:27.020Z,3.58
2019-05-03T02:56:55.945Z,3.20
2019-05-03T02:59:26.381Z,3.77
2019-05-03T03:01:55.804Z,3.15
2019-05-03T03:04:25.983Z,3.20
2019-05-03T03:06:55.605Z,3.25
2019-05-03T03:09:25.894Z,3.70
2019-05-03T03:11:57.170Z,3.52
2019-05-03T03:14:25.863Z,3.60
2019-05-03T03:16:56.155Z,3.20
2019-05-03T03:19:27.275Z,3.02
2019-05-03T03:21:57.642Z,3.65
2019-05-03T03:24:27.924Z,3.62
2019-05-03T03:26:58.475Z,3.25
2019-05-03T03:29:27.569Z,3.37
2019-05-03T03:32:19.076Z,3.40
2019-05-03T03:35:03.517Z,3.67
2019-05-03T03:37:30.440Z,3.62
2019-05-03T03:39:58.747Z,4.05
2019-05-03T03:42:28.739Z,3.08
2019-05-03T03:44:57.433Z,3.37
2019-05-03T03:47:27.300Z,3.92
2019-05-03T03:49:55.988Z,3.77
2019-05-03T03:52:25.680Z,2.90
2019-05-03T03:54:55.428Z,3.10
2019-05-03T03:57:25.287Z,3.50
2019-05-03T03:59:56.004Z,2.77
2019-05-03T04:02:26.214Z,2.90
2019-05-03T04:04:56.230Z,3.35
2019-05-03T04:07:26.249Z,2.83
2019-05-03T04:09:56.229Z,2.45
2019-05-03T04:12:26.576Z,2.70
2019-05-03T04:15:01.694Z,2.58
2019-05-03T04:17:37.540Z,3.00
2019-05-03T04:20:07.650Z,2.58
2019-05-03T04:22:36.428Z,2.80
2019-05-03T04:25:06.012Z,2.77
2019-05-03T04:27:36.436Z,3.10
2019-05-03T04:30:06.230Z,3.20
2019-05-03T04:32:35.983Z,3.10
2019-05-03T04:35:05.461Z,2.85
2019-05-03T04:37:35.884Z,3.08
2019-05-03T04:40:07.524Z,3.70
2019-05-03T04:42:36.008Z,3.30
2019-05-03T04:45:06.009Z,3.35
2019-05-03T04:47:35.753Z,2.72
2019-05-03T04:50:06.191Z,3.33
2019-05-03T04:52:36.106Z,2.72
2019-05-03T04:55:06.883Z,2.70
2019-05-03T04:57:42.180Z,2.40
2019-05-03T05:00:11.267Z,3.08
2019-05-03T05:02:37.376Z,2.72
2019-05-03T05:05:08.406Z,3.17
2019-05-03T05:07:36.721Z,3.20
2019-05-03T05:10:07.026Z,3.00
2019-05-03T05:12:35.623Z,2.75
2019-05-03T05:15:06.580Z,3.05
2019-05-03T05:17:52.605Z,3.40
2019-05-03T05:20:25.427Z,3.65
2019-05-03T05:25:25.142Z,3.72
2019-05-03T05:28:00.960Z,4.78
2019-05-03T05:30:29.915Z,4.72
2019-05-03T05:32:58.238Z,4.15
2019-05-03T05:35:26.511Z,4.80
2019-05-03T05:37:54.816Z,4.83
2019-05-03T05:40:24.534Z,5.28
2019-05-03T05:42:54.585Z,5.33
2019-05-03T05:45:24.598Z,5.45
2019-05-03T05:47:54.823Z,5.55
2019-05-03T05:50:25.396Z,4.95
2019-05-03T05:52:55.211Z,4.87
2019-05-03T05:55:25.376Z,4.92
2019-05-03T05:58:07.495Z,4.83
2019-05-03T06:00:36.023Z,4.33
2019-05-03T06:03:05.168Z,4.90
2019-05-03T06:05:35.423Z,4.22
2019-05-03T06:08:05.455Z,5.00
2019-05-03T06:10:45.141Z,4.60
2019-05-03T06:13:18.084Z,4.47
2019-05-03T06:18:17.242Z,3.70
2019-05-03T06:20:54.399Z,4.15
2019-05-03T06:23:24.843Z,3.90
2019-05-03T06:25:54.532Z,4.00
2019-05-03T06:28:25.224Z,3.52
2019-05-03T06:30:55.239Z,3.62
2019-05-03T06:33:24.462Z,3.50
2019-05-03T06:35:54.648Z,3.90
2019-05-03T06:38:24.433Z,4.37
2019-05-03T06:40:54.432Z,4.15
2019-05-03T06:43:24.487Z,3.80
2019-05-03T06:45:54.671Z,3.67
2019-05-03T06:48:28.177Z,3.55
2019-05-03T06:50:55.646Z,4.35
2019-05-03T06:53:25.412Z,3.62
2019-05-03T06:55:55.424Z,3.42
2019-05-03T06:58:32.845Z,3.12
2019-05-03T07:00:55.512Z,3.17
2019-05-03T07:03:28.477Z,2.67
2019-05-03T07:05:58.419Z,2.77
2019-05-03T07:08:37.552Z,2.85
2019-05-03T07:11:07.639Z,2.65
2019-05-03T07:13:36.269Z,2.72
2019-05-03T07:16:04.812Z,2.92
2019-05-03T07:18:35.997Z,2.40
2019-05-03T07:21:04.874Z,2.62
2019-05-03T07:23:34.997Z,2.67
2019-05-03T07:26:05.215Z,2.98
2019-05-03T07:28:44.494Z,2.55
2019-05-03T07:31:04.841Z,2.30
2019-05-03T07:33:34.887Z,2.85
2019-05-03T07:36:05.324Z,3.02
2019-05-03T07:38:35.021Z,2.42
2019-05-03T07:41:05.255Z,2.42
2019-05-03T07:43:33.460Z,3.22
2019-05-03T07:46:01.746Z,2.60
2019-05-03T07:48:30.036Z,2.58
2019-05-03T07:50:58.377Z,2.30
2019-05-03T07:53:26.650Z,2.60
2019-05-03T07:55:59.246Z,2.17
2019-05-03T07:58:29.293Z,2.50
2019-05-03T08:01:06.173Z,2.47
2019-05-03T08:03:29.304Z,2.30
2019-05-03T08:05:57.865Z,2.25
2019-05-03T08:08:26.163Z,2.33
2019-05-03T08:10:54.980Z,1.92
2019-05-03T08:13:25.313Z,2.30
2019-05-03T08:15:55.541Z,1.87
2019-05-03T08:18:25.570Z,1.98
2019-05-03T08:20:55.430Z,2.30
2019-05-03T08:23:29.703Z,1.90
2019-05-03T08:25:55.649Z,2.30
2019-05-03T08:28:24.562Z,2.42
2019-05-03T08:31:00.750Z,1.90
2019-05-03T08:33:46.925Z,2.30
2019-05-03T08:36:15.622Z,2.25
2019-05-03T08:38:45.217Z,2.20
2019-05-03T08:41:21.477Z,2.37
2019-05-03T08:43:49.766Z,2.12
2019-05-03T08:46:18.081Z,2.27
2019-05-03T08:48:46.363Z,1.95
2019-05-03T08:51:14.937Z,2.02
2019-05-03T08:53:45.827Z,1.70
2019-05-03T08:56:15.507Z,1.62
2019-05-03T08:58:45.140Z,2.25
2019-05-03T09:01:14.781Z,2.17
2019-05-03T09:03:43.259Z,2.17
2019-05-03T09:06:11.539Z,1.87
2019-05-03T09:08:39.837Z,2.60
2019-05-03T09:11:12.480Z,2.15
2019-05-03T09:13:42.418Z,2.10
2019-05-03T09:16:10.819Z,3.15
2019-05-03T09:18:39.094Z,2.27
2019-05-03T09:21:07.368Z,1.95
2019-05-03T09:23:35.802Z,2.67
2019-05-03T09:26:04.650Z,2.35
2019-05-03T09:28:34.853Z,2.30
2019-05-03T09:31:04.688Z,2.40
2019-05-03T09:33:33.101Z,2.65
2019-05-03T09:36:01.380Z,2.25
2019-05-03T09:38:29.668Z,2.52
2019-05-03T09:40:58.404Z,2.67
2019-05-03T09:43:26.702Z,2.17
2019-05-03T09:45:55.232Z,2.33
2019-05-03T09:48:25.461Z,2.00
2019-05-03T09:50:55.681Z,2.12
2019-05-03T09:53:26.037Z,2.50
2019-05-03T09:55:55.552Z,2.05
2019-05-03T09:58:26.196Z,2.20
2019-05-03T10:00:55.520Z,2.10
2019-05-03T10:03:23.867Z,1.77
2019-05-03T10:05:52.139Z,2.10
2019-05-03T10:08:20.686Z,1.95
2019-05-03T10:11:06.508Z,1.90
2019-05-03T10:13:35.608Z,2.35
2019-05-03T10:16:06.045Z,2.00
2019-05-03T10:18:34.992Z,2.20
2019-05-03T10:21:05.307Z,2.33
2019-05-03T10:23:35.857Z,2.77
2019-05-03T10:26:05.234Z,2.35
2019-05-03T10:28:33.588Z,2.33
2019-05-03T10:31:07.475Z,1.92
2019-05-03T10:33:39.470Z,2.17
2019-05-03T10:36:07.757Z,2.00
2019-05-03T10:38:36.060Z,2.00
2019-05-03T10:41:05.822Z,2.00
2019-05-03T10:43:35.472Z,2.33
2019-05-03T10:46:05.172Z,1.90
2019-05-03T10:48:35.549Z,1.72
2019-05-03T10:51:04.748Z,1.85
2019-05-03T10:53:37.908Z,1.75
2019-05-03T10:56:23.330Z,1.50
2019-05-03T10:58:50.509Z,2.17
2019-05-03T11:01:20.462Z,1.98
2019-05-03T11:03:48.733Z,2.15
2019-05-03T11:06:17.038Z,1.87
2019-05-03T11:08:45.319Z,1.90
2019-05-03T11:11:15.078Z,2.00
2019-05-03T11:13:43.511Z,1.50
2019-05-03T11:16:12.042Z,1.67
2019-05-03T11:18:40.322Z,1.65
2019-05-03T11:21:08.615Z,1.80
2019-05-03T11:23:36.901Z,1.60
2019-05-03T11:26:05.191Z,1.62
2019-05-03T11:28:35.256Z,1.60
2019-05-03T11:31:21.432Z,1.82
2019-05-03T11:33:49.733Z,1.42
2019-05-03T11:36:22.151Z,1.67
2019-05-03T11:38:50.429Z,1.47
2019-05-03T11:41:29.384Z,1.80
2019-05-03T11:43:48.804Z,1.75
2019-05-03T11:46:17.195Z,1.92
2019-05-03T11:48:45.608Z,1.95
2019-05-03T11:51:15.199Z,1.85
2019-05-03T11:53:45.054Z,1.50
2019-05-03T11:56:14.835Z,1.70
2019-05-03T11:58:45.528Z,1.60
2019-05-03T12:01:19.506Z,1.72
2019-05-03T12:03:46.673Z,1.67
2019-05-03T12:06:15.733Z,1.70
2019-05-03T12:08:45.624Z,1.80
2019-05-03T12:11:15.098Z,1.50
2019-05-03T12:13:45.619Z,2.08
2019-05-03T12:16:19.838Z,1.87
2019-05-03T12:18:50.237Z,2.02
2019-05-03T12:21:17.726Z,1.85
2019-05-03T12:23:45.962Z,2.27
2019-05-03T12:26:17.118Z,1.70
2019-05-03T12:28:44.966Z,1.87
2019-05-03T12:31:28.235Z,1.80
2019-05-03T12:33:45.742Z,1.98
2019-05-03T12:36:15.478Z,1.60
2019-05-03T12:38:43.403Z,1.80
2019-05-03T12:41:11.710Z,1.55
2019-05-03T12:43:40.073Z,2.30
2019-05-03T12:46:08.351Z,1.90
2019-05-03T12:48:36.640Z,2.35
2019-05-03T12:51:07.250Z,1.65
2019-05-03T12:53:35.933Z,1.65
2019-05-03T12:56:11.412Z,1.47
2019-05-03T12:58:38.871Z,2.00
2019-05-03T13:01:11.276Z,1.50
2019-05-03T13:03:41.091Z,1.60
2019-05-03T13:06:09.398Z,1.40
2019-05-03T13:08:40.284Z,1.50
2019-05-03T13:11:09.036Z,1.82
2019-05-03T13:13:37.420Z,1.47
2019-05-03T13:16:06.310Z,1.42
2019-05-03T13:18:35.318Z,1.80
2019-05-03T13:21:05.720Z,1.60
2019-05-03T13:23:35.389Z,2.05
2019-05-03T13:26:05.659Z,1.87
2019-05-03T13:28:34.133Z,1.70
2019-05-03T13:31:02.404Z,2.10
2019-05-03T13:33:30.726Z,1.70
2019-05-03T13:35:59.010Z,1.80
2019-05-03T13:38:27.298Z,2.00
2019-05-03T13:40:55.577Z,1.85
2019-05-03T13:43:23.891Z,2.27
2019-05-03T13:45:52.163Z,1.80
2019-05-03T13:48:21.176Z,1.70
2019-05-03T13:50:50.451Z,2.00
2019-05-03T13:53:18.741Z,1.90
2019-05-03T13:55:47.008Z,1.82
2019-05-03T13:58:15.300Z,1.72
2019-05-03T14:00:45.394Z,2.22
2019-05-03T14:03:15.270Z,1.70
2019-05-03T14:05:44.573Z,1.90
2019-05-03T14:08:15.408Z,2.00
2019-05-03T14:10:45.206Z,1.80
2019-05-03T14:13:13.059Z,2.30
2019-05-03T14:15:41.323Z,1.90
2019-05-03T14:18:11.264Z,2.10
2019-05-03T14:20:57.378Z,2.30
2019-05-03T14:23:25.686Z,2.02
2019-05-03T14:25:55.227Z,1.82
2019-05-03T14:28:25.269Z,1.90
2019-05-03T14:30:54.812Z,1.77
2019-05-03T14:33:24.869Z,2.12
2019-05-03T14:35:54.698Z,2.20
2019-05-03T14:38:25.311Z,2.00
2019-05-03T14:40:55.099Z,2.25
2019-05-03T14:43:24.928Z,1.77
2019-05-03T14:45:54.979Z,2.17
2019-05-03T14:48:24.803Z,2.30
2019-05-03T14:50:57.134Z,2.27
2019-05-03T14:53:25.280Z,2.42
2019-05-03T14:55:54.993Z,2.40
2019-05-03T14:58:35.278Z,2.22
2019-05-03T15:01:07.995Z,2.00
2019-05-03T15:03:36.530Z,2.55
2019-05-03T15:06:05.283Z,2.08
2019-05-03T15:08:34.988Z,1.87
2019-05-03T15:11:05.327Z,2.52
2019-05-03T15:13:34.997Z,2.17
2019-05-03T15:16:05.202Z,2.08
2019-05-03T15:18:34.866Z,2.35
2019-05-03T15:21:05.346Z,2.17
2019-05-03T15:23:34.717Z,2.02
2019-05-03T15:26:05.049Z,2.20
2019-05-03T15:28:35.409Z,2.27
2019-05-03T15:31:04.559Z,2.12
2019-05-03T15:33:35.191Z,2.08
2019-05-03T15:36:04.772Z,2.08
2019-05-03T15:38:34.609Z,2.15
2019-05-03T15:41:05.385Z,2.00
2019-05-03T15:43:40.812Z,2.08
2019-05-03T15:46:14.690Z,2.15
2019-05-03T15:48:47.405Z,2.10
2019-05-03T15:51:16.012Z,2.27
2019-05-03T15:53:44.465Z,2.00
2019-05-03T15:56:14.503Z,2.15
2019-05-03T15:58:46.418Z,2.60
2019-05-03T16:01:15.167Z,2.30
2019-05-03T16:03:44.878Z,2.50
2019-05-03T16:06:15.314Z,2.17
2019-05-03T16:08:44.634Z,2.30
2019-05-03T16:11:14.851Z,1.98
2019-05-03T16:13:44.870Z,2.22
2019-05-03T16:16:15.176Z,2.47
2019-05-03T16:18:44.807Z,1.98
2019-05-03T16:21:14.602Z,2.12
2019-05-03T16:23:46.260Z,2.40
2019-05-03T16:26:14.356Z,2.37
2019-05-03T16:28:50.513Z,2.10
2019-05-03T16:31:24.895Z,2.30
2019-05-03T16:33:55.012Z,2.45
2019-05-03T16:36:23.336Z,2.02
2019-05-03T16:38:51.606Z,2.55
2019-05-03T16:41:19.913Z,2.35
2019-05-03T16:43:48.181Z,2.50
2019-05-03T16:46:16.457Z,2.37
2019-05-03T16:48:44.998Z,2.10
2019-05-03T16:51:16.852Z,2.33
2019-05-03T16:53:44.492Z,2.65
2019-05-03T16:56:16.764Z,2.92
2019-05-03T16:58:44.704Z,2.00
2019-05-03T17:01:15.948Z,2.50
2019-05-03T17:03:45.660Z,2.20
2019-05-03T17:06:31.742Z,2.20
2019-05-03T17:09:14.505Z,2.27
2019-05-03T17:11:42.849Z,2.17
2019-05-03T17:14:11.165Z,1.80
2019-05-03T17:16:39.457Z,2.20
2019-05-03T17:19:07.752Z,2.15
2019-05-03T17:21:36.030Z,1.70
2019-05-03T17:24:06.212Z,2.58
2019-05-03T17:26:35.147Z,2.10
2019-05-03T17:29:04.672Z,2.12
2019-05-03T17:31:35.033Z,1.80
2019-05-03T17:34:02.935Z,2.22
2019-05-03T17:36:31.208Z,1.80
2019-05-03T17:39:01.147Z,1.90
2019-05-03T17:41:31.062Z,2.10
2019-05-03T17:44:00.996Z,2.10
2019-05-03T17:46:29.274Z,2.10
2019-05-03T17:48:57.591Z,2.27
2019-05-03T17:51:46.519Z,2.40
2019-05-03T17:54:28.699Z,2.30
2019-05-03T17:56:58.616Z,2.30
2019-05-03T17:59:28.537Z,2.47
2019-05-03T18:02:15.356Z,2.60
2019-05-03T18:04:57.103Z,2.45
2019-05-03T18:07:38.890Z,2.10
2019-05-03T18:10:08.022Z,2.33
2019-05-03T18:12:36.291Z,2.62
2019-05-03T18:15:06.628Z,2.27
2019-05-03T18:17:35.226Z,2.58
2019-05-03T18:20:05.018Z,2.10
2019-05-03T18:22:33.291Z,2.20
2019-05-03T18:25:01.632Z,2.60
2019-05-03T18:27:29.902Z,2.12
2019-05-03T18:29:58.203Z,2.33
2019-05-03T18:32:26.480Z,2.87
2019-05-03T18:34:55.063Z,2.67
2019-05-03T18:37:24.510Z,2.17
2019-05-03T18:39:54.715Z,2.55
2019-05-03T18:42:24.715Z,2.80
2019-05-03T18:44:57.496Z,2.70
2019-05-03T18:47:27.142Z,2.80
2019-05-03T18:49:55.433Z,3.10
2019-05-03T18:52:23.696Z,2.65
2019-05-03T18:54:52.260Z,2.72
2019-05-03T18:57:20.532Z,3.08
2019-05-03T18:59:48.827Z,3.17
2019-05-03T19:02:17.107Z,3.10
2019-05-03T19:04:49.692Z,2.95
2019-05-03T19:07:26.108Z,2.98
2019-05-03T19:10:05.073Z,3.08
2019-05-03T19:12:40.717Z,3.02
2019-05-03T19:15:09.989Z,3.10
2019-05-03T19:17:42.615Z,3.15
2019-05-03T19:20:15.287Z,2.52
2019-05-03T19:22:43.616Z,2.35
2019-05-03T19:25:11.978Z,3.12
2019-05-03T19:27:40.247Z,2.92
2019-05-03T19:30:08.786Z,2.70
2019-05-03T19:32:37.056Z,2.50
2019-05-03T19:35:08.721Z,3.08
2019-05-03T19:37:37.372Z,3.20
2019-05-03T19:40:06.669Z,2.83
2019-05-03T19:42:35.394Z,3.10
2019-05-03T19:45:03.754Z,3.05
2019-05-03T19:47:32.030Z,3.05
2019-05-03T19:50:00.308Z,2.95
2019-05-03T19:52:30.233Z,2.77
2019-05-03T19:54:58.498Z,2.85
2019-05-03T19:57:28.430Z,2.90
2019-05-03T19:59:57.080Z,3.05
2019-05-03T20:02:45.469Z,3.12
2019-05-03T20:05:31.454Z,3.45
2019-05-03T20:08:06.891Z,2.75
2019-05-03T20:10:35.320Z,3.15
2019-05-03T20:13:04.604Z,3.20
2019-05-03T20:15:33.036Z,3.10
2019-05-03T20:18:01.308Z,2.95
2019-05-03T20:20:29.579Z,3.20
2019-05-03T20:22:59.062Z,2.67
2019-05-03T20:25:27.425Z,3.10
2019-05-03T20:27:55.986Z,3.05
2019-05-03T20:30:25.477Z,2.58
2019-05-03T20:32:55.550Z,2.62
2019-05-03T20:35:25.162Z,3.25
2019-05-03T20:37:55.334Z,3.10
2019-05-03T20:40:25.561Z,3.85
2019-05-03T20:43:07.178Z,3.15
2019-05-03T20:45:37.095Z,3.22
2019-05-03T20:48:09.826Z,3.08
2019-05-03T20:50:38.122Z,3.33
2019-05-03T20:53:06.410Z,3.40
2019-05-03T20:55:34.877Z,3.60
2019-05-03T20:58:03.160Z,3.70
2019-05-03T21:00:31.433Z,3.30
2019-05-03T21:02:59.731Z,3.10
2019-05-03T21:05:32.051Z,3.47
2019-05-03T21:07:58.004Z,3.40
2019-05-03T21:10:26.273Z,3.15
2019-05-03T21:12:54.585Z,3.27
2019-05-03T21:15:44.407Z,3.00
2019-05-03T21:18:28.987Z,2.80
2019-05-03T21:21:07.600Z,2.20
2019-05-03T21:23:37.537Z,2.80
2019-05-03T21:26:13.267Z,3.02
2019-05-03T21:28:39.807Z,2.92
2019-05-03T21:31:08.083Z,3.10
2019-05-03T21:33:36.375Z,3.40
2019-05-03T21:36:04.840Z,3.65
2019-05-03T21:38:35.197Z,3.30
2019-05-03T21:41:05.107Z,3.37
2019-05-03T21:43:34.868Z,3.60
2019-05-03T21:46:07.565Z,3.33
2019-05-03T21:48:37.500Z,3.37
2019-05-03T21:51:05.768Z,3.47
2019-05-03T21:53:34.468Z,3.17
2019-05-03T21:56:02.846Z,3.70
2019-05-03T21:58:31.174Z,3.62
2019-05-03T22:01:01.048Z,3.72
2019-05-03T22:03:29.339Z,3.22
2019-05-03T22:05:58.129Z,3.70
2019-05-03T22:08:26.581Z,3.42
2019-05-03T22:10:55.407Z,3.67
2019-05-03T22:13:24.588Z,4.15
2019-05-03T22:15:54.626Z,3.92
2019-05-03T22:18:24.875Z,5.22
2019-05-03T22:21:06.886Z,3.87
2019-05-03T22:23:52.886Z,3.92
2019-05-03T22:26:24.720Z,3.83
2019-05-03T22:28:54.710Z,3.92
2019-05-03T22:31:24.204Z,3.70
2019-05-03T22:33:55.076Z,3.92
2019-05-03T22:36:24.561Z,4.00
2019-05-03T22:38:54.450Z,4.20
2019-05-03T22:41:22.801Z,3.52
2019-05-03T22:43:51.085Z,4.00
2019-05-03T22:46:19.356Z,4.17
2019-05-03T22:48:47.652Z,4.08
2019-05-03T22:51:15.928Z,4.08
2019-05-03T22:53:44.863Z,4.60
2019-05-03T22:56:14.450Z,3.45
2019-05-03T22:58:42.932Z,2.60
2019-05-03T23:01:11.222Z,2.20
2019-05-03T23:03:45.375Z,2.12
2019-05-03T23:06:22.033Z,2.20
2019-05-03T23:08:44.323Z,2.20
2019-05-03T23:11:12.608Z,1.90
2019-05-03T23:13:40.900Z,2.37
2019-05-03T23:16:09.183Z,2.77
2019-05-03T23:18:37.452Z,2.15
2019-05-03T23:21:15.106Z,2.05
2019-05-03T23:23:54.861Z,2.15
2019-05-03T23:26:25.279Z,1.75
2019-05-03T23:28:55.103Z,2.22
2019-05-03T23:31:25.145Z,2.08
2019-05-03T23:33:54.457Z,1.80
2019-05-03T23:36:32.847Z,3.05
2019-05-03T23:38:54.619Z,2.12
2019-05-03T23:41:24.586Z,1.85
2019-05-03T23:43:52.967Z,2.42
2019-05-03T23:46:22.913Z,2.17
2019-05-03T23:48:51.191Z,2.22
2019-05-03T23:51:37.343Z,2.35
2019-05-03T23:54:06.183Z,2.42
2019-05-03T23:56:35.084Z,2.35
2019-05-03T23:59:05.374Z,2.70
